KFSM/FSM METAR and TAF weather

Enter ICAO airport designator
Station Type Date Time Source
KFSM METAR 2020/09/19 05:53 UTC NOAA

KFSM 190553Z AUTO 09003KT 10SM CLR 18/16 A3018 RMK AO2 SLP217 T01780156 10250 20172 402780172 50001


Station Type Date Time Source
KFSM Decoded METAR 2020/09/19 05:53 UTC NOAA

FORT SMITH REGIONAL AIRPORT, AR, United States (KFSM) 35-20N 94-22W 140M
Sep 19, 2020 - 01:53 AM EDT / 2020.09.19 0553 UTC
Wind: from the E (090 degrees) at 3 MPH (3 KT):0
Visibility: 10 mile(s):0
Sky conditions: clear
Temperature: 64.0 F (17.8 C)
Dew Point: 60.1 F (15.6 C)
Relative Humidity: 86%
Pressure (altimeter): 30.18 in. Hg (1022 hPa)
Pressure tendency: 0.00 inches (0.1 hPa) higher than three hours ago
ob: KFSM 190553Z AUTO 09003KT 10SM CLR 18/16 A3018 RMK AO2 SLP217 T01780156 10250 20172 402780172 50001
cycle: 6

Station Type Date Time Source
KFSM TAF 2020/09/19 06:22 UTC NOAA

TAF KFSM 190520Z 1906/2006 08005KT P6SM SKC

Example: see airport list